Dodge City Regional Airport
KDDC : now visible

Airfield :











YOU CAN JOIN US ON...

 
LOGIN :

Register | Disclaimer

   EN    FR    IT 

 









Legend :    VFR   Marginal VFR   IFR   Intensive IFR   Very Intensive IFR
Visi :
Ceiling :
>= 8 km
>= 3000ft
5 to 8 km
1000 to 3000 ft
1500m to 5 km
500 to 1000 ft
800 to 1500m
200 to 500 ft
< 800m
< 200 ft
Symbols :   Thunderstorms  Fog  Heavy snow  Heavy precipitations  Wind > 20 kt






- Airport Elevation : 2594 ft
- IATA code : DDC


KDDC - Dodge City Regional

CURRENT METAR :
  • 161152Z AUTO 35011KT 4SM BR BKN004 OVC065 M05/M06 A3005 RMK AO2 SLP200 60001 70002 I6000 T10501061 11050 21056 51006

EXPIRED METARs :
  • 161052Z AUTO 01008KT 3SM BR OVC002 M05/M07 A3004 RMK AO2 SLP196 I1000 T10501067
  • 161012Z AUTO 01008KT 2 1/2SM BR OVC002 M05/M07 A3004 RMK AO2 T10501067
  • 160952Z AUTO 36007KT 3SM BR OVC003 M06/M07 A3005 RMK AO2 SLP197 T10561067
  • 160930Z AUTO 36006KT 4SM BR OVC004 M06/M07 A3005 RMK AO2 T10561067

TAF KDDC
Valid from the 16 at 12:00 until the 17 at 12:00 UTC


161121Z 1612/1712 36009KT 4SM -SN BR OVC003
FM161600 35008KT P6SM VCSH BKN021
FM161700 35009KT P6SM BKN035
FM161900 35010KT P6SM BKN120



MET'MAP, your aeronautical weather chart ! - Copyright ORBIFLY December 2007 - Disclaimer

ORBIFLY MET'MAP TEAM :

Programming & Development : Alexandra Zaïnal
Concept & original design : Baudouin d'Aumeries
Assistance for programming : Marc-Olivier Méhu
Technical & hardware support : Manuel Goepfert

Contact : metmap@orbifly.com




SOURCES & CREDITS :

   NOAA       Earth
Advisory